Time;durP1;ratioP1;P1;durP2;ratioP2;P2;SDS_P1;SDS_P2;PMS_P1;PMS_P2;Temp;Humidity;BMP_temperature;BMP_pressure;BME280_temperature;BME280_humidity;BME280_pressure;Samples;Min_cycle;Max_cycle;Signal;HPM_P1;HPM_P2
2023/02/20 00:00:32;;;;;;;2.57;2.37;;;;;;;5.40;100.00;101122.13;4972589;28;20208;-70
2023/02/20 00:02:57;;;;;;;2.53;2.23;;;;;;;5.39;100.00;101118.59;4972870;28;20178;-70
2023/02/20 00:05:23;;;;;;;9.67;3.80;;;;;;;5.38;100.00;101109.66;4972539;28;20279;-70
2023/02/20 00:07:48;;;;;;;5.27;4.40;;;;;;;5.39;100.00;101105.03;4972686;28;20186;-71
2023/02/20 00:10:14;;;;;;;3.07;1.97;;;;;;;5.40;100.00;101116.69;4971421;28;20186;-71
2023/02/20 00:12:40;;;;;;;3.63;3.00;;;;;;;5.42;100.00;101111.81;4972494;28;20229;-73
2023/02/20 00:15:05;;;;;;;4.13;3.73;;;;;;;5.44;100.00;101113.19;4972270;28;20589;-70
2023/02/20 00:17:31;;;;;;;3.37;2.93;;;;;;;5.48;100.00;101119.72;4972496;28;20220;-71
2023/02/20 00:19:56;;;;;;;3.63;3.33;;;;;;;5.51;100.00;101124.63;4972455;28;20205;-71
2023/02/20 00:22:22;;;;;;;6.73;3.77;;;;;;;5.54;100.00;101110.56;4972478;28;20181;-71
2023/02/20 00:24:48;;;;;;;3.17;2.97;;;;;;;5.55;100.00;101103.25;4972297;28;20182;-69
2023/02/20 00:27:14;;;;;;;5.03;3.23;;;;;;;5.56;100.00;101110.28;4972187;28;20188;-77
2023/02/20 00:29:39;;;;;;;2.53;2.10;;;;;;;5.57;100.00;101101.91;4972301;28;20189;-76
2023/02/20 00:32:04;;;;;;;9.33;3.90;;;;;;;5.60;100.00;101100.56;4972343;28;20638;-76
2023/02/20 00:34:30;;;;;;;3.93;3.57;;;;;;;5.62;100.00;101106.53;4971928;28;20193;-74
2023/02/20 00:36:55;;;;;;;4.27;3.83;;;;;;;5.60;100.00;101095.13;4972129;28;20181;-75
2023/02/20 00:39:21;;;;;;;2.97;2.77;;;;;;;5.61;100.00;101096.75;4972069;28;20210;-76
2023/02/20 00:41:46;;;;;;;6.07;1.83;;;;;;;5.61;100.00;101100.28;4972066;28;20206;-75
2023/02/20 00:44:11;;;;;;;3.73;3.43;;;;;;;5.62;100.00;101084.84;4971959;28;20186;-73
2023/02/20 00:46:37;;;;;;;4.43;4.03;;;;;;;5.66;100.00;101096.81;4971970;28;20228;-78
2023/02/20 00:49:02;;;;;;;4.20;3.80;;;;;;;5.68;100.00;101087.34;4971994;28;20177;-76
2023/02/20 00:51:28;;;;;;;4.27;3.87;;;;;;;5.69;100.00;101090.84;4972273;28;20529;-74
2023/02/20 00:53:53;;;;;;;4.30;2.23;;;;;;;5.67;100.00;101079.47;4971614;28;20178;-75
2023/02/20 00:56:18;;;;;;;13.00;3.33;;;;;;;5.67;100.00;101083.00;4971208;28;20181;-76
2023/02/20 00:58:44;;;;;;;3.17;2.87;;;;;;;5.66;100.00;101067.81;4971757;28;20205;-74
2023/02/20 01:01:09;;;;;;;3.47;3.17;;;;;;;5.66;100.00;101075.13;4971885;28;20182;-76
2023/02/20 01:03:35;;;;;;;3.07;2.77;;;;;;;5.65;100.00;101079.75;4972017;28;20261;-72
2023/02/20 01:06:00;;;;;;;4.27;3.93;;;;;;;5.64;100.00;101069.97;4970223;28;20197;-76
2023/02/20 01:08:28;;;;;;;2.20;2.10;;;;;;;5.64;100.00;101078.09;4972132;28;20593;-76
2023/02/20 01:10:53;;;;;;;3.40;3.10;;;;;;;5.65;100.00;101070.78;4971692;28;20534;-76
2023/02/20 01:13:18;;;;;;;3.03;2.83;;;;;;;5.66;100.00;101072.41;4971739;28;20182;-76
2023/02/20 01:15:44;;;;;;;4.47;3.53;;;;;;;5.66;100.00;101072.41;4971446;28;20189;-74
2023/02/20 01:18:09;;;;;;;3.23;2.93;;;;;;;5.66;100.00;101077.84;4971459;28;20304;-76
2023/02/20 01:20:35;;;;;;;3.77;3.47;;;;;;;5.63;100.00;101067.50;4971648;28;20202;-75
2023/02/20 01:23:00;;;;;;;4.23;3.93;;;;;;;5.63;100.00;101078.34;4971503;28;20184;-75
2023/02/20 01:25:26;;;;;;;3.13;2.90;;;;;;;5.65;100.00;101076.22;4971794;28;20626;-77
2023/02/20 01:27:51;;;;;;;0.93;0.87;;;;;;;5.62;100.00;101069.41;4971403;28;20634;-75
2023/02/20 01:30:17;;;;;;;3.50;3.20;;;;;;;5.62;100.00;101079.41;4971505;28;20178;-76
2023/02/20 01:32:42;;;;;;;3.27;2.77;;;;;;;5.61;100.00;101067.75;4971578;28;20202;-75
2023/02/20 01:35:08;;;;;;;4.53;4.13;;;;;;;5.63;100.00;101062.91;4971099;28;20189;-76
2023/02/20 01:37:33;;;;;;;2.53;2.30;;;;;;;5.62;100.00;101055.84;4971469;28;20174;-76
2023/02/20 01:39:59;;;;;;;3.17;2.87;;;;;;;5.59;100.00;101036.59;4971375;28;20657;-76
2023/02/20 01:42:28;;;;;;;4.17;3.77;;;;;;;5.58;100.00;101024.13;4971380;28;20178;-76
2023/02/20 01:44:53;;;;;;;13.57;2.27;;;;;;;5.58;100.00;101018.69;4971206;28;20537;-75
2023/02/20 01:47:22;;;;;;;2.43;2.23;;;;;;;5.57;100.00;101009.75;4971296;28;20174;-76
2023/02/20 01:50:02;;;;;;;3.53;2.83;;;;;;;5.55;100.00;101008.38;4971430;28;20182;-76
2023/02/20 01:52:31;;;;;;;10.40;3.40;;;;;;;5.55;100.00;100997.56;4971104;28;20170;-76
2023/02/20 01:55:21;;;;;;;3.40;3.17;;;;;;;5.51;100.00;101002.69;4971337;28;20593;-77
2023/02/20 01:57:53;;;;;;;1.57;1.47;;;;;;;5.53;100.00;101010.56;4971169;28;20188;-75
2023/02/20 02:00:23;;;;;;;3.03;2.83;;;;;;;5.53;100.00;100999.72;4971302;28;20284;-76
2023/02/20 02:02:58;;;;;;;2.47;2.23;;;;;;;5.52;100.00;101001.59;4971357;28;20213;-75
2023/02/20 02:05:24;;;;;;;4.13;3.77;;;;;;;5.50;100.00;100992.13;4971219;28;20178;-75
2023/02/20 02:07:49;;;;;;;2.27;2.00;;;;;;;5.49;100.00;100982.31;4971112;28;20182;-74
2023/02/20 02:10:19;;;;;;;4.67;4.10;;;;;;;5.48;100.00;100973.38;4972953;28;20268;-76
2023/02/20 02:12:52;;;;;;;1.83;1.73;;;;;;;5.45;100.00;100973.91;4973705;28;20520;-76
2023/02/20 02:15:19;;;;;;;5.93;4.37;;;;;;;5.42;100.00;100968.22;4974724;28;20174;-76
2023/02/20 02:18:15;;;;;;;3.60;3.37;;;;;;;5.40;100.00;100960.34;4974656;28;20166;-75
2023/02/20 02:21:11;;;;;;;4.57;4.17;;;;;;;5.35;100.00;100960.31;4974696;28;20705;-73
2023/02/20 02:23:48;;;;;;;2.83;2.63;;;;;;;5.35;100.00;100947.63;4974627;28;20174;-74
2023/02/20 02:26:28;;;;;;;4.63;4.23;;;;;;;5.31;100.00;100943.78;4974551;28;20209;-74
2023/02/20 02:29:40;;;;;;;1.47;1.37;;;;;;;5.31;100.00;100935.66;4974858;28;20181;-77
2023/02/20 02:32:11;;;;;;;3.50;2.70;;;;;;;5.29;100.00;100945.94;4974722;28;20174;-76
2023/02/20 02:35:18;;;;;;;3.90;3.67;;;;;;;5.25;100.00;100942.13;4974204;28;20547;-74
2023/02/20 02:38:00;;;;;;;3.73;3.43;;;;;;;5.20;100.00;100944.81;4974174;28;20504;-76
2023/02/20 02:40:37;;;;;;;5.43;3.80;;;;;;;5.16;100.00;100938.28;4974377;28;20182;-76
2023/02/20 02:43:15;;;;;;;4.07;3.77;;;;;;;5.14;100.00;100934.22;4974294;28;20186;-76
2023/02/20 02:45:47;;;;;;;3.80;3.43;;;;;;;5.11;100.00;100922.03;4974122;28;20253;-74
2023/02/20 02:48:15;;;;;;;3.53;2.70;;;;;;;5.09;100.00;100907.94;4974113;28;20190;-77
2023/02/20 02:50:43;;;;;;;4.13;3.60;;;;;;;5.06;100.00;100900.31;4974138;28;20185;-76
2023/02/20 02:53:12;;;;;;;0.93;0.93;;;;;;;5.03;100.00;100898.13;4972606;28;20209;-75
2023/02/20 02:55:37;;;;;;;5.23;4.83;;;;;;;5.01;100.00;100893.00;4973756;28;20531;-75
2023/02/20 02:58:04;;;;;;;6.60;6.03;;;;;;;4.99;100.00;100897.84;4973895;28;20201;-76
2023/02/20 03:01:00;;;;;;;6.90;6.27;;;;;;;5.03;100.00;100884.59;4973959;28;20170;-76
2023/02/20 03:03:31;;;;;;;3.87;3.47;;;;;;;5.05;100.00;100882.44;4965469;28;20194;-74
2023/02/20 03:06:02;;;;;;;6.63;5.97;;;;;;;5.04;100.00;100886.22;4973774;28;20618;-74
2023/02/20 03:08:30;;;;;;;6.47;5.50;;;;;;;5.08;100.00;100890.88;4973764;28;20175;-75
2023/02/20 03:11:04;;;;;;;6.73;6.03;;;;;;;5.17;100.00;100868.69;4973831;28;20550;-72
2023/02/20 03:16:19;;;;;;;3.60;3.30;;;;;;;5.28;100.00;100867.66;4973510;28;20225;-75
2023/02/20 03:18:48;;;;;;;9.67;8.60;;;;;;;5.28;100.00;100865.75;4973499;28;20313;-75
2023/02/20 03:21:17;;;;;;;8.87;7.93;;;;;;;5.31;100.00;100865.22;4973134;28;20669;-74
2023/02/20 03:23:48;;;;;;;6.27;5.77;;;;;;;5.34;100.00;100880.94;4973509;28;20166;-78
2023/02/20 03:26:21;;;;;;;6.57;6.00;;;;;;;5.35;100.00;100871.75;4973348;28;20198;-75
2023/02/20 03:28:52;;;;;;;6.77;6.23;;;;;;;5.37;100.00;100880.44;4973532;28;20170;-76
2023/02/20 03:31:30;;;;;;;11.63;10.67;;;;;;;5.37;100.00;100863.34;4973434;28;20294;-78
2023/02/20 03:45:26;;;;;;;9.90;9.00;;;;;;;5.34;100.00;100859.25;4973290;28;20252;-73
2023/02/20 03:47:58;;;;;;;10.37;7.70;;;;;;;5.35;100.00;100852.78;4973000;28;20186;-71
2023/02/20 03:50:42;;;;;;;12.97;11.87;;;;;;;5.35;100.00;100850.09;4973107;28;20622;-72
2023/02/20 03:53:08;;;;;;;11.67;10.57;;;;;;;5.37;100.00;100845.19;4972799;28;20622;-73
2023/02/20 03:55:33;;;;;;;13.57;12.30;;;;;;;5.44;100.00;100850.34;4971593;28;20241;-75
2023/02/20 03:58:04;;;;;;;7.33;6.73;;;;;;;5.47;100.00;100830.03;4972784;28;20182;-72
2023/02/20 04:00:33;;;;;;;5.47;4.97;;;;;;;5.51;100.00;100850.94;4973111;28;20178;-74
2023/02/20 04:03:04;;;;;;;10.27;9.37;;;;;;;5.54;100.00;100847.69;4973015;28;20189;-73
2023/02/20 04:05:35;;;;;;;7.00;6.40;;;;;;;5.60;100.00;100840.38;4972548;28;20177;-71
2023/02/20 04:08:19;;;;;;;9.40;8.57;;;;;;;5.65;100.00;100843.09;4972645;28;20183;-74
2023/02/20 04:10:51;;;;;;;8.57;7.70;;;;;;;5.64;100.00;100833.31;4972646;28;20634;-74
2023/02/20 04:13:17;;;;;;;9.10;8.40;;;;;;;5.64;100.00;100833.31;4972692;28;20182;-71
2023/02/20 04:15:43;;;;;;;10.20;8.20;;;;;;;5.66;100.00;100829.28;4972624;28;20188;-76
2023/02/20 04:18:12;;;;;;;11.00;8.33;;;;;;;5.67;100.00;100821.97;4972346;28;20252;-78
2023/02/20 04:20:38;;;;;;;13.47;9.43;;;;;;;5.76;100.00;100831.16;4971523;28;20515;-74
2023/02/20 04:23:13;;;;;;;7.73;6.93;;;;;;;5.74;100.00;100808.94;4972322;28;20188;-72
2023/02/20 04:25:46;;;;;;;9.13;8.33;;;;;;;5.79;100.00;100825.22;4972425;28;20184;-75
2023/02/20 04:28:14;;;;;;;6.77;6.17;;;;;;;5.82;100.00;100818.44;4972711;28;20450;-75
2023/02/20 04:30:39;;;;;;;11.33;10.33;;;;;;;5.87;100.00;100807.59;4972175;28;20177;-74
2023/02/20 04:33:04;;;;;;;10.27;8.00;;;;;;;5.88;100.00;100810.03;4971629;28;20188;-76
2023/02/20 04:35:30;;;;;;;10.63;9.63;;;;;;;5.91;100.00;100812.22;4971818;28;20280;-74
2023/02/20 04:37:55;;;;;;;8.43;6.00;;;;;;;5.92;100.00;100784.03;4971934;28;20686;-72
2023/02/20 04:40:22;;;;;;;3.63;3.03;;;;;;;5.95;100.00;100788.09;4972109;28;20178;-72
2023/02/20 04:42:51;;;;;;;4.97;4.67;;;;;;;5.99;100.00;100770.19;4972102;28;20213;-75
2023/02/20 04:45:16;;;;;;;6.57;3.83;;;;;;;5.99;100.00;100758.53;4972230;28;20182;-77
2023/02/20 04:47:42;;;;;;;6.43;5.57;;;;;;;5.98;100.00;100741.47;4972074;28;20308;-75
2023/02/20 04:50:19;;;;;;;5.30;4.23;;;;;;;5.95;100.00;100737.41;4970705;28;20185;-74
2023/02/20 04:52:44;;;;;;;12.30;9.90;;;;;;;5.97;100.00;100718.13;4970596;28;20177;-75
2023/02/20 04:55:09;;;;;;;8.87;7.87;;;;;;;5.95;100.00;100695.91;4971692;28;20551;-76
2023/02/20 04:57:35;;;;;;;5.87;3.47;;;;;;;5.97;100.00;100704.56;4972172;28;20189;-74
2023/02/20 05:00:01;;;;;;;10.73;9.27;;;;;;;6.03;98.12;100714.31;4970503;28;20221;-71
2023/02/20 05:02:26;;;;;;;9.30;8.17;;;;;;;6.04;99.56;100726.78;4971716;28;20642;-74
2023/02/20 05:04:51;;;;;;;5.73;5.23;;;;;;;6.10;100.00;100714.84;4971742;28;20189;-75
2023/02/20 05:07:17;;;;;;;12.47;10.80;;;;;;;6.14;100.00;100742.25;4970496;28;20186;-73
2023/02/20 05:09:43;;;;;;;8.47;7.07;;;;;;;6.16;100.00;100729.22;4971808;28;20170;-74
2023/02/20 05:12:09;;;;;;;7.50;6.90;;;;;;;6.16;100.00;100730.03;4971695;28;20182;-74
2023/02/20 05:14:34;;;;;;;9.17;7.83;;;;;;;6.19;100.00;100718.63;4971488;28;20177;-76
2023/02/20 05:16:59;;;;;;;5.13;4.73;;;;;;;6.25;100.00;100730.28;4971770;28;20826;-73
2023/02/20 05:19:25;;;;;;;8.80;7.93;;;;;;;6.25;100.00;100746.56;4972037;28;20209;-76
2023/02/20 05:24:33;;;;;;;7.70;6.70;;;;;;;6.24;100.00;100740.31;4971394;28;20217;-76
2023/02/20 05:26:59;;;;;;;5.63;5.13;;;;;;;6.27;100.00;100738.97;4971483;28;20241;-75
2023/02/20 05:29:24;;;;;;;6.67;5.83;;;;;;;6.30;100.00;100734.88;4971449;28;20182;-75
2023/02/20 05:31:50;;;;;;;7.10;5.97;;;;;;;6.30;99.96;100730.25;4971619;28;20235;-74
2023/02/20 05:34:15;;;;;;;8.10;6.50;;;;;;;6.31;100.00;100736.50;4971149;28;20189;-72
2023/02/20 05:36:40;;;;;;;9.70;7.50;;;;;;;6.33;99.74;100740.56;4971680;28;20178;-76
2023/02/20 05:39:06;;;;;;;6.30;5.70;;;;;;;6.32;99.69;100736.22;4971561;28;20260;-76
2023/02/20 05:41:31;;;;;;;12.03;7.73;;;;;;;6.33;99.41;100732.41;4971576;28;20190;-76
2023/02/20 05:43:58;;;;;;;15.33;7.77;;;;;;;6.32;99.87;100721.84;4973998;28;20174;-76
2023/02/20 05:46:25;;;;;;;7.97;7.23;;;;;;;6.34;100.00;100720.47;4973684;28;20181;-73
2023/02/20 05:48:51;;;;;;;9.17;8.27;;;;;;;6.32;99.86;100706.38;4975305;28;20184;-77
2023/02/20 05:51:23;;;;;;;7.33;6.67;;;;;;;6.34;99.38;100712.34;4975268;28;20182;-78
2023/02/20 05:53:49;;;;;;;4.97;3.93;;;;;;;6.34;99.10;100697.97;4975112;28;20180;-75
2023/02/20 05:56:14;;;;;;;8.20;7.47;;;;;;;6.37;98.99;100698.25;4974935;28;20530;-75
2023/02/20 05:58:42;;;;;;;8.90;7.00;;;;;;;6.39;98.75;100690.63;4975006;28;20209;-70
2023/02/20 06:01:08;;;;;;;5.60;5.07;;;;;;;6.42;97.96;100687.34;4975338;28;20208;-76
2023/02/20 06:03:33;;;;;;;7.93;4.23;;;;;;;6.41;98.06;100677.59;4975151;28;20673;-74
2023/02/20 06:05:58;;;;;;;7.80;7.03;;;;;;;6.44;97.63;100701.44;4974893;28;20257;-75
2023/02/20 06:08:24;;;;;;;10.80;4.90;;;;;;;6.51;97.05;100690.31;4974932;28;20178;-71
2023/02/20 06:10:49;;;;;;;3.50;3.20;;;;;;;6.52;96.37;100695.47;4974227;28;20185;-70
2023/02/20 06:13:14;;;;;;;6.90;4.73;;;;;;;6.53;96.05;100697.09;4974924;28;20181;-71
2023/02/20 06:15:40;;;;;;;2.47;2.27;;;;;;;6.60;95.63;100698.66;4974687;28;20178;-70
2023/02/20 06:18:05;;;;;;;2.67;2.47;;;;;;;6.66;94.83;100679.38;4974820;28;20266;-71
2023/02/20 06:20:30;;;;;;;8.17;3.47;;;;;;;6.65;94.28;100675.00;4975029;28;20264;-71
2023/02/20 06:22:56;;;;;;;6.67;5.40;;;;;;;6.67;94.15;100664.72;4974621;28;20197;-71
2023/02/20 06:25:21;;;;;;;5.83;2.67;;;;;;;6.68;93.88;100674.47;4974540;28;20178;-70
2023/02/20 06:27:47;;;;;;;5.23;3.80;;;;;;;6.68;94.17;100660.09;4974875;28;20270;-71
2023/02/20 06:30:12;;;;;;;6.97;3.53;;;;;;;6.71;93.76;100659.53;4974778;28;20173;-71
2023/02/20 06:32:37;;;;;;;4.03;3.63;;;;;;;6.77;93.73;100652.97;4974554;28;20654;-70
2023/02/20 06:35:04;;;;;;;5.37;4.63;;;;;;;6.76;93.62;100665.72;4974058;28;20186;-71
2023/02/20 06:37:29;;;;;;;6.43;4.60;;;;;;;6.76;93.38;100671.16;4974309;28;20261;-70
2023/02/20 06:39:54;;;;;;;4.17;3.77;;;;;;;6.78;93.58;100671.69;4974202;28;20344;-70
2023/02/20 06:42:20;;;;;;;4.07;3.67;;;;;;;6.81;93.18;100662.19;4974151;28;20170;-71
2023/02/20 06:44:45;;;;;;;4.70;4.20;;;;;;;6.82;93.16;100656.47;4974017;28;20223;-70
2023/02/20 06:47:10;;;;;;;4.13;3.73;;;;;;;6.84;92.88;100669.78;4973003;28;20313;-70
2023/02/20 06:49:37;;;;;;;4.23;3.80;;;;;;;6.89;92.60;100648.00;4974161;28;20189;-74
2023/02/20 06:52:04;;;;;;;4.43;3.00;;;;;;;6.93;92.34;100657.19;4974130;28;20169;-73
2023/02/20 06:54:29;;;;;;;5.70;3.60;;;;;;;6.94;91.95;100658.81;4973052;28;20658;-70
2023/02/20 06:56:55;;;;;;;6.03;4.50;;;;;;;6.93;92.55;100664.53;4973918;28;20200;-74
2023/02/20 06:59:21;;;;;;;4.30;1.93;;;;;;;6.94;92.41;100656.09;4973891;28;20700;-75
2023/02/20 07:01:46;;;;;;;4.67;4.27;;;;;;;6.99;92.40;100645.22;4972701;28;20166;-74
2023/02/20 07:04:19;;;;;;;4.10;3.80;;;;;;;7.01;92.17;100650.38;4972402;28;20181;-71
2023/02/20 07:06:44;;;;;;;7.23;3.47;;;;;;;6.97;92.22;100662.91;4973792;28;20700;-72
2023/02/20 07:09:10;;;;;;;4.97;3.80;;;;;;;6.97;92.28;100661.00;4973819;28;20174;-70
2023/02/20 07:11:35;;;;;;;5.77;3.37;;;;;;;6.96;91.79;100664.00;4973655;28;20181;-70
2023/02/20 07:14:00;;;;;;;3.50;3.27;;;;;;;6.95;91.89;100665.09;4973772;28;20599;-72
2023/02/20 07:16:26;;;;;;;5.60;5.03;;;;;;;6.97;92.45;100674.59;4972670;28;20665;-70
2023/02/20 07:18:51;;;;;;;5.00;4.57;;;;;;;6.95;92.37;100663.19;4973599;28;20736;-71
2023/02/20 07:21:16;;;;;;;6.03;2.80;;;;;;;6.96;92.43;100674.88;4973588;28;20201;-70
2023/02/20 07:23:43;;;;;;;9.67;3.93;;;;;;;6.93;92.17;100689.78;4973551;28;20534;-74
2023/02/20 07:26:19;;;;;;;4.03;3.63;;;;;;;6.91;92.63;100683.84;4973276;28;20181;-70
2023/02/20 07:28:45;;;;;;;4.23;3.60;;;;;;;6.95;92.38;100665.91;4973560;28;20201;-71
2023/02/20 07:31:10;;;;;;;4.73;3.87;;;;;;;6.96;92.90;100674.88;4973608;28;20185;-70
2023/02/20 07:33:36;;;;;;;4.70;3.97;;;;;;;6.94;92.65;100675.13;4973490;28;20170;-71
2023/02/20 07:36:02;;;;;;;6.77;4.13;;;;;;;6.95;92.65;100660.47;4972907;28;20272;-71
2023/02/20 07:38:27;;;;;;;9.00;5.70;;;;;;;6.95;92.74;100660.47;4973142;28;20252;-70
2023/02/20 07:40:52;;;;;;;4.90;4.47;;;;;;;6.94;92.83;100642.53;4973198;28;20181;-70
2023/02/20 07:43:18;;;;;;;7.77;6.40;;;;;;;6.98;92.57;100649.03;4973190;28;20541;-71
2023/02/20 07:45:43;;;;;;;5.03;4.27;;;;;;;6.97;92.79;100633.84;4972930;28;20477;-70
2023/02/20 07:48:08;;;;;;;6.17;3.90;;;;;;;6.97;91.93;100649.31;4973113;28;20166;-71
2023/02/20 07:50:34;;;;;;;4.73;4.33;;;;;;;6.95;92.67;100646.91;4972993;28;20182;-69
2023/02/20 07:52:59;;;;;;;8.07;4.07;;;;;;;6.96;92.30;100651.22;4973422;28;20182;-70
2023/02/20 07:55:24;;;;;;;8.43;3.77;;;;;;;6.97;92.14;100649.31;4972842;28;20264;-74
2023/02/20 07:57:53;;;;;;;4.17;3.17;;;;;;;6.97;91.97;100635.75;4972932;28;20170;-69
2023/02/20 08:00:20;;;;;;;4.03;3.63;;;;;;;6.97;92.01;100643.91;4972810;28;20874;-71
2023/02/20 08:02:46;;;;;;;3.67;3.37;;;;;;;6.99;91.53;100639.00;4972873;28;20174;-73
2023/02/20 08:05:12;;;;;;;4.17;3.77;;;;;;;7.02;91.76;100638.41;4972479;28;20225;-70
2023/02/20 08:07:37;;;;;;;6.97;3.47;;;;;;;7.01;91.39;100645.75;4972584;28;20206;-72
2023/02/20 08:10:04;;;;;;;7.63;3.90;;;;;;;7.03;91.81;100640.03;4972679;28;20256;-72
2023/02/20 08:12:30;;;;;;;12.13;5.20;;;;;;;7.00;91.77;100635.97;4972704;28;20248;-71
2023/02/20 08:14:55;;;;;;;4.27;3.93;;;;;;;6.99;91.65;100631.66;4972587;28;20182;-73
2023/02/20 08:17:20;;;;;;;3.20;3.00;;;;;;;6.99;92.73;100631.66;4972586;28;20178;-71
2023/02/20 08:19:46;;;;;;;3.90;3.60;;;;;;;6.99;92.49;100623.50;4972353;28;20213;-70
2023/02/20 08:22:11;;;;;;;7.87;4.53;;;;;;;6.98;93.02;100616.44;4972439;28;20266;-71
2023/02/20 08:24:36;;;;;;;6.17;5.57;;;;;;;7.03;92.63;100618.31;4972281;28;20265;-72
2023/02/20 08:27:02;;;;;;;5.13;4.63;;;;;;;7.04;92.00;100638.94;4972349;28;20182;-70
2023/02/20 08:29:27;;;;;;;5.97;5.37;;;;;;;7.00;92.50;100633.25;4972339;28;20236;-72
2023/02/20 08:31:53;;;;;;;6.53;4.17;;;;;;;7.00;93.08;100622.41;4972615;28;20176;-70
2023/02/20 08:34:18;;;;;;;7.80;5.07;;;;;;;6.97;93.21;100622.16;4971911;28;20174;-76
2023/02/20 08:36:44;;;;;;;3.53;3.23;;;;;;;6.95;94.32;100610.78;4972152;28;20174;-75
2023/02/20 08:39:09;;;;;;;4.60;4.13;;;;;;;6.93;94.46;100613.75;4972026;28;20228;-77
2023/02/20 08:41:41;;;;;;;3.90;3.60;;;;;;;6.92;93.92;100608.59;4972238;28;20202;-72
2023/02/20 08:44:07;;;;;;;9.97;7.60;;;;;;;6.94;93.36;100607.22;4972027;28;20232;-73
2023/02/20 08:46:32;;;;;;;7.70;7.03;;;;;;;6.96;93.12;100602.34;4971943;28;20250;-75
2023/02/20 08:48:57;;;;;;;5.47;4.93;;;;;;;6.94;93.64;100588.22;4972087;28;20206;-75
2023/02/20 08:51:22;;;;;;;10.03;5.27;;;;;;;6.93;93.80;100596.63;4971924;28;20185;-74
2023/02/20 08:53:48;;;;;;;5.90;5.30;;;;;;;6.95;94.31;100608.06;4972027;28;20192;-76
2023/02/20 08:56:17;;;;;;;9.30;5.13;;;;;;;7.00;95.06;100603.38;4971907;28;20177;-74
2023/02/20 08:58:43;;;;;;;5.73;5.30;;;;;;;7.03;94.85;100607.44;4971852;28;20689;-75
2023/02/20 09:01:08;;;;;;;7.57;6.90;;;;;;;7.02;94.39;100614.78;4971823;28;20260;-76
2023/02/20 09:03:37;;;;;;;8.60;7.83;;;;;;;7.00;94.44;100595.25;4971713;28;20206;-74
2023/02/20 09:06:03;;;;;;;4.23;3.80;;;;;;;7.05;94.18;100606.06;4971598;28;20177;-76
2023/02/20 09:08:28;;;;;;;15.30;11.97;;;;;;;7.03;94.60;100578.38;4971727;28;20178;-75
2023/02/20 09:10:54;;;;;;;14.17;11.33;;;;;;;7.02;94.15;100593.03;4971996;28;20170;-73
2023/02/20 09:13:19;;;;;;;31.63;7.00;;;;;;;7.05;94.42;100603.34;4971680;28;20237;-74
2023/02/20 09:15:44;;;;;;;21.93;11.97;;;;;;;7.08;94.30;100594.63;4971499;28;20178;-72
2023/02/20 09:18:13;;;;;;;12.60;11.43;;;;;;;7.12;93.81;100584.00;4971030;28;20181;-75
2023/02/20 09:20:39;;;;;;;9.30;7.13;;;;;;;7.15;94.21;100600.53;4971629;28;20181;-75
2023/02/20 09:23:05;;;;;;;10.50;9.30;;;;;;;7.21;94.54;100593.16;4970383;28;20174;-75
2023/02/20 09:25:30;;;;;;;12.30;11.27;;;;;;;7.22;93.69;100585.81;4971399;28;20176;-75
2023/02/20 09:27:56;;;;;;;9.37;8.47;;;;;;;7.23;94.40;100587.44;4971569;28;20174;-73
2023/02/20 09:30:21;;;;;;;12.83;10.90;;;;;;;7.23;94.38;100579.28;4971565;28;20190;-76
2023/02/20 09:32:47;;;;;;;11.93;10.73;;;;;;;7.24;94.44;100572.78;4971967;28;20197;-75
2023/02/20 09:35:18;;;;;;;13.83;12.13;;;;;;;7.24;94.22;100579.03;4970914;28;20194;-75
2023/02/20 09:37:43;;;;;;;15.33;13.03;;;;;;;7.24;94.55;100575.50;4971514;28;20178;-75
2023/02/20 09:40:10;;;;;;;12.57;11.43;;;;;;;7.26;94.58;100562.44;4971382;28;20209;-74
2023/02/20 09:42:41;;;;;;;13.07;10.00;;;;;;;7.29;95.19;100591.75;4971634;28;20638;-75
2023/02/20 09:45:36;;;;;;;17.23;15.53;;;;;;;7.33;95.31;100562.88;4971181;28;20198;-73
2023/02/20 09:48:32;;;;;;;13.90;12.50;;;;;;;7.33;95.62;100569.13;4968274;28;20190;-76
2023/02/20 09:51:04;;;;;;;15.80;14.03;;;;;;;7.32;96.02;100588.44;4970338;28;20189;-76
2023/02/20 09:53:37;;;;;;;15.67;14.23;;;;;;;7.28;95.92;100590.94;4971357;28;20282;-76
2023/02/20 09:56:09;;;;;;;13.93;12.57;;;;;;;7.30;96.50;100561.56;4970998;28;20202;-76
2023/02/20 09:58:44;;;;;;;15.30;13.90;;;;;;;7.32;96.70;100553.91;4971246;28;20205;-77
2023/02/20 10:01:14;;;;;;;16.67;14.13;;;;;;;7.34;96.91;100576.19;4971297;28;20181;-76
2023/02/20 10:03:56;;;;;;;22.90;16.53;;;;;;;7.35;97.44;100566.13;4971572;28;20182;-76
2023/02/20 10:06:25;;;;;;;15.73;14.13;;;;;;;7.38;97.92;100563.66;4970953;28;20185;-75
2023/02/20 10:08:51;;;;;;;16.43;14.43;;;;;;;7.36;98.37;100556.88;4971213;28;20241;-76
2023/02/20 10:11:27;;;;;;;19.80;16.87;;;;;;;7.31;98.24;100562.38;4971243;28;20654;-77
2023/02/20 10:14:22;;;;;;;15.43;14.10;;;;;;;7.26;99.00;100563.22;4971196;28;20635;-77
2023/02/20 10:16:59;;;;;;;12.37;11.27;;;;;;;7.24;98.84;100554.56;4969726;28;20189;-77
2023/02/20 10:19:30;;;;;;;20.37;17.80;;;;;;;7.20;99.48;100555.41;4971086;28;20205;-77
2023/02/20 10:22:09;;;;;;;15.43;13.87;;;;;;;7.20;99.80;100563.56;4971171;28;20417;-77
2023/02/20 10:24:59;;;;;;;16.07;14.37;;;;;;;7.20;100.00;100558.94;4970933;28;20200;-76
2023/02/20 10:27:41;;;;;;;16.60;12.30;;;;;;;7.20;100.00;100556.22;4970981;28;20178;-75
2023/02/20 10:30:12;;;;;;;19.03;14.97;;;;;;;7.12;100.00;100552.22;4972461;28;20265;-74
2023/02/20 10:32:53;;;;;;;18.37;16.67;;;;;;;7.15;100.00;100540.78;4974582;28;20182;-75
2023/02/20 10:35:25;;;;;;;19.10;17.37;;;;;;;7.15;100.00;100548.94;4974089;28;20202;-75
2023/02/20 10:37:55;;;;;;;10.97;10.13;;;;;;;7.15;100.00;100551.63;4974379;28;20178;-75
2023/02/20 10:40:21;;;;;;;16.10;14.70;;;;;;;7.15;100.00;100540.78;4974371;28;20214;-77
2023/02/20 10:42:50;;;;;;;15.83;14.33;;;;;;;7.19;100.00;100556.50;4974511;28;20201;-76
2023/02/20 10:45:26;;;;;;;18.97;14.80;;;;;;;7.20;100.00;100580.66;4974140;28;20237;-76
2023/02/20 10:48:14;;;;;;;17.60;16.10;;;;;;;7.20;100.00;100547.25;4974293;28;20189;-75
2023/02/20 10:50:54;;;;;;;15.60;14.03;;;;;;;7.25;100.00;100558.91;4974237;28;20178;-75
2023/02/20 10:53:27;;;;;;;18.20;15.30;;;;;;;7.25;100.00;100558.91;4974441;28;20450;-75
2023/02/20 10:56:05;;;;;;;10.00;8.97;;;;;;;7.23;100.00;100558.34;4973996;28;20181;-76
2023/02/20 10:58:35;;;;;;;20.00;18.30;;;;;;;7.24;100.00;100564.63;4974002;28;20205;-77
2023/02/20 11:01:08;;;;;;;20.47;17.53;;;;;;;7.21;100.00;100549.69;4974031;28;20645;-76
2023/02/20 11:03:43;;;;;;;14.67;13.47;;;;;;;7.19;100.00;100546.44;4972711;28;20619;-75
2023/02/20 11:06:12;;;;;;;18.43;15.50;;;;;;;7.18;100.00;100560.31;4973715;28;20173;-75
2023/02/20 11:08:37;;;;;;;22.33;13.53;;;;;;;7.19;100.00;100575.53;4973841;28;20178;-76
2023/02/20 11:11:22;;;;;;;18.73;11.27;;;;;;;7.20;100.00;100555.41;4973827;28;20204;-76
2023/02/20 11:13:47;;;;;;;25.33;17.10;;;;;;;7.22;100.00;100564.06;4973780;28;20668;-77
2023/02/20 11:16:23;;;;;;;15.13;13.70;;;;;;;7.21;100.00;100562.44;4973570;28;20174;-76
2023/02/20 11:19:04;;;;;;;14.40;12.50;;;;;;;7.24;100.00;100556.47;4973530;28;20292;-76
2023/02/20 11:21:43;;;;;;;18.43;11.63;;;;;;;7.26;100.00;100568.66;4973634;28;20216;-77
2023/02/20 11:24:24;;;;;;;17.53;13.67;;;;;;;7.28;100.00;100554.78;4973625;28;20205;-75
2023/02/20 11:26:56;;;;;;;17.50;15.47;;;;;;;7.29;100.00;100572.72;4973532;28;20185;-76
2023/02/20 11:29:22;;;;;;;14.83;13.47;;;;;;;7.27;100.00;100562.13;4972480;28;20259;-77
2023/02/20 11:31:48;;;;;;;14.57;12.87;;;;;;;7.27;100.00;100564.03;4973373;28;20176;-72
2023/02/20 11:34:18;;;;;;;19.83;17.97;;;;;;;7.21;100.00;100582.28;4973021;28;20181;-76
2023/02/20 11:36:52;;;;;;;19.10;15.97;;;;;;;7.19;100.00;100578.22;4973584;28;20562;-74
2023/02/20 11:39:28;;;;;;;21.63;19.60;;;;;;;7.09;100.00;100569.09;4973258;28;20213;-76
2023/02/20 11:42:10;;;;;;;17.37;15.10;;;;;;;7.06;100.00;100572.34;4972963;28;20188;-77
2023/02/20 11:44:35;;;;;;;23.83;20.83;;;;;;;7.00;100.00;100575.41;4973031;28;20184;-75
2023/02/20 11:47:23;;;;;;;22.87;18.20;;;;;;;6.98;100.00;100561.31;4971987;28;20737;-77
2023/02/20 11:50:06;;;;;;;28.20;20.30;;;;;;;6.97;100.00;100568.66;4973341;28;20174;-77